Terminal Aerodrome Forecast
Issued by NWS Brownsville, TX

Home | Current Version | Previous Version | Text Only | Print | Product List | Glossary On
Versions: 1 2 3 4 5 6 7 8 9 10 11 12 13 14 15
243
FTUS44 KBRO 260532
TAFHRL
TAF
KHRL 260532Z 2606/2706 14009KT P6SM SCT020 BKN250
     FM261500 15014G19KT P6SM VCSH BKN050
     FM270200 12009KT P6SM BKN100=

USA.gov is the U.S. government's official web portal to all federal, state and local government web resources and services.